sensor_id;sensor_type;location;lat;lon;timestamp;temperature;humidity
38860;DHT22;24609;48.316;16.174;2022-07-04T00:02:25;16.80;99.90
38860;DHT22;24609;48.316;16.174;2022-07-04T00:04:51;16.70;99.90
38860;DHT22;24609;48.316;16.174;2022-07-04T00:07:16;16.80;99.90
38860;DHT22;24609;48.316;16.174;2022-07-04T00:09:42;16.80;99.90
38860;DHT22;24609;48.316;16.174;2022-07-04T00:12:08;16.80;99.90
38860;DHT22;24609;48.316;16.174;2022-07-04T00:14:34;16.80;99.90
38860;DHT22;24609;48.316;16.174;2022-07-04T00:17:00;16.70;99.90
38860;DHT22;24609;48.316;16.174;2022-07-04T00:19:25;16.70;99.90
38860;DHT22;24609;48.316;16.174;2022-07-04T00:21:51;16.60;99.90
38860;DHT22;24609;48.316;16.174;2022-07-04T00:24:17;16.60;99.90
38860;DHT22;24609;48.316;16.174;2022-07-04T00:26:43;16.60;99.90
38860;DHT22;24609;48.316;16.174;2022-07-04T00:29:09;16.50;99.90
38860;DHT22;24609;48.316;16.174;2022-07-04T00:31:35;16.40;99.90
38860;DHT22;24609;48.316;16.174;2022-07-04T00:34:01;16.50;99.90
38860;DHT22;24609;48.316;16.174;2022-07-04T00:36:27;16.40;99.90
38860;DHT22;24609;48.316;16.174;2022-07-04T00:38:53;16.40;99.90
38860;DHT22;24609;48.316;16.174;2022-07-04T00:41:18;16.40;99.90
38860;DHT22;24609;48.316;16.174;2022-07-04T00:44:02;16.40;99.90
38860;DHT22;24609;48.316;16.174;2022-07-04T00:46:29;16.40;99.90
38860;DHT22;24609;48.316;16.174;2022-07-04T00:48:54;16.30;99.90
38860;DHT22;24609;48.316;16.174;2022-07-04T00:51:20;16.30;99.90
38860;DHT22;24609;48.316;16.174;2022-07-04T00:53:46;16.30;99.90
38860;DHT22;24609;48.316;16.174;2022-07-04T00:56:12;16.30;99.90
38860;DHT22;24609;48.316;16.174;2022-07-04T00:58:38;16.10;99.90
38860;DHT22;24609;48.316;16.174;2022-07-04T01:01:03;16.20;99.90
38860;DHT22;24609;48.316;16.174;2022-07-04T01:03:29;16.10;99.90
38860;DHT22;24609;48.316;16.174;2022-07-04T01:05:56;16.10;99.90
38860;DHT22;24609;48.316;16.174;2022-07-04T01:08:24;16.20;99.90
38860;DHT22;24609;48.316;16.174;2022-07-04T01:10:49;16.10;99.90
38860;DHT22;24609;48.316;16.174;2022-07-04T01:13:22;16.10;99.90
38860;DHT22;24609;48.316;16.174;2022-07-04T01:15:49;16.10;99.90
38860;DHT22;24609;48.316;16.174;2022-07-04T01:18:15;16.10;99.90
38860;DHT22;24609;48.316;16.174;2022-07-04T01:20:40;16.10;99.90
38860;DHT22;24609;48.316;16.174;2022-07-04T01:23:06;16.10;99.90
38860;DHT22;24609;48.316;16.174;2022-07-04T01:25:32;16.10;99.90
38860;DHT22;24609;48.316;16.174;2022-07-04T01:28:02;16.00;99.90
38860;DHT22;24609;48.316;16.174;2022-07-04T01:30:29;15.90;99.90
38860;DHT22;24609;48.316;16.174;2022-07-04T01:32:55;15.90;99.90
38860;DHT22;24609;48.316;16.174;2022-07-04T01:35:21;15.90;99.90
38860;DHT22;24609;48.316;16.174;2022-07-04T01:37:48;15.90;99.90
38860;DHT22;24609;48.316;16.174;2022-07-04T01:40:14;15.80;99.90
38860;DHT22;24609;48.316;16.174;2022-07-04T01:42:40;15.90;99.90
38860;DHT22;24609;48.316;16.174;2022-07-04T01:45:08;15.80;99.90
38860;DHT22;24609;48.316;16.174;2022-07-04T01:47:34;15.70;99.90
38860;DHT22;24609;48.316;16.174;2022-07-04T01:50:01;15.70;99.90
38860;DHT22;24609;48.316;16.174;2022-07-04T01:52:26;15.70;99.90
38860;DHT22;24609;48.316;16.174;2022-07-04T01:54:52;15.70;99.90
38860;DHT22;24609;48.316;16.174;2022-07-04T01:57:18;15.80;99.90
38860;DHT22;24609;48.316;16.174;2022-07-04T01:59:44;15.80;99.90
38860;DHT22;24609;48.316;16.174;2022-07-04T02:02:28;15.80;99.90
38860;DHT22;24609;48.316;16.174;2022-07-04T02:04:55;15.60;99.90
38860;DHT22;24609;48.316;16.174;2022-07-04T02:07:20;15.60;99.90
38860;DHT22;24609;48.316;16.174;2022-07-04T02:09:46;15.50;99.90
38860;DHT22;24609;48.316;16.174;2022-07-04T02:12:12;15.50;99.90
38860;DHT22;24609;48.316;16.174;2022-07-04T02:14:57;15.50;99.90
38860;DHT22;24609;48.316;16.174;2022-07-04T02:17:22;15.60;99.90
38860;DHT22;24609;48.316;16.174;2022-07-04T02:19:48;15.50;99.90
38860;DHT22;24609;48.316;16.174;2022-07-04T02:22:14;15.50;99.90
38860;DHT22;24609;48.316;16.174;2022-07-04T02:24:41;15.50;99.90
38860;DHT22;24609;48.316;16.174;2022-07-04T02:27:06;15.50;99.90
38860;DHT22;24609;48.316;16.174;2022-07-04T02:29:32;15.40;99.90
38860;DHT22;24609;48.316;16.174;2022-07-04T02:31:58;15.40;99.90
38860;DHT22;24609;48.316;16.174;2022-07-04T02:34:24;15.40;99.90
38860;DHT22;24609;48.316;16.174;2022-07-04T02:36:50;15.30;99.90
38860;DHT22;24609;48.316;16.174;2022-07-04T02:39:15;15.30;99.90
38860;DHT22;24609;48.316;16.174;2022-07-04T02:41:41;15.30;99.90
38860;DHT22;24609;48.316;16.174;2022-07-04T02:44:07;15.30;99.90
38860;DHT22;24609;48.316;16.174;2022-07-04T02:46:33;15.30;99.90
38860;DHT22;24609;48.316;16.174;2022-07-04T02:48:59;15.40;99.90
38860;DHT22;24609;48.316;16.174;2022-07-04T02:51:25;15.40;99.90
38860;DHT22;24609;48.316;16.174;2022-07-04T02:53:51;15.40;99.90
38860;DHT22;24609;48.316;16.174;2022-07-04T02:56:17;15.40;99.90
38860;DHT22;24609;48.316;16.174;2022-07-04T02:58:43;15.40;99.90
38860;DHT22;24609;48.316;16.174;2022-07-04T03:01:08;15.40;99.90
38860;DHT22;24609;48.316;16.174;2022-07-04T03:03:34;15.40;99.90
38860;DHT22;24609;48.316;16.174;2022-07-04T03:06:00;15.40;99.90
38860;DHT22;24609;48.316;16.174;2022-07-04T03:08:26;15.30;99.90
38860;DHT22;24609;48.316;16.174;2022-07-04T03:10:52;15.20;99.90
38860;DHT22;24609;48.316;16.174;2022-07-04T03:13:18;15.30;99.90
38860;DHT22;24609;48.316;16.174;2022-07-04T03:15:45;15.20;99.90
38860;DHT22;24609;48.316;16.174;2022-07-04T03:18:11;15.20;99.90
38860;DHT22;24609;48.316;16.174;2022-07-04T03:20:37;15.20;99.90
38860;DHT22;24609;48.316;16.174;2022-07-04T03:23:03;15.30;99.90
38860;DHT22;24609;48.316;16.174;2022-07-04T03:25:29;15.30;99.90
38860;DHT22;24609;48.316;16.174;2022-07-04T03:27:54;15.40;99.90
38860;DHT22;24609;48.316;16.174;2022-07-04T03:30:20;15.50;99.90
38860;DHT22;24609;48.316;16.174;2022-07-04T03:32:46;15.40;99.90
38860;DHT22;24609;48.316;16.174;2022-07-04T03:35:12;15.40;99.90
38860;DHT22;24609;48.316;16.174;2022-07-04T03:37:38;15.40;99.90
38860;DHT22;24609;48.316;16.174;2022-07-04T03:40:04;15.60;99.90
38860;DHT22;24609;48.316;16.174;2022-07-04T03:42:30;15.60;99.90
38860;DHT22;24609;48.316;16.174;2022-07-04T03:44:55;15.70;99.90
38860;DHT22;24609;48.316;16.174;2022-07-04T03:47:22;15.70;99.90
38860;DHT22;24609;48.316;16.174;2022-07-04T03:49:48;15.90;99.90
38860;DHT22;24609;48.316;16.174;2022-07-04T03:52:13;16.20;99.90
38860;DHT22;24609;48.316;16.174;2022-07-04T03:54:39;16.50;99.90
38860;DHT22;24609;48.316;16.174;2022-07-04T03:57:05;16.80;99.90
38860;DHT22;24609;48.316;16.174;2022-07-04T03:59:30;16.80;99.90
38860;DHT22;24609;48.316;16.174;2022-07-04T04:01:56;16.70;99.90
38860;DHT22;24609;48.316;16.174;2022-07-04T04:04:22;16.60;99.90
38860;DHT22;24609;48.316;16.174;2022-07-04T04:07:06;16.60;99.90
38860;DHT22;24609;48.316;16.174;2022-07-04T04:09:32;16.70;99.90
38860;DHT22;24609;48.316;16.174;2022-07-04T04:11:58;17.00;99.90
38860;DHT22;24609;48.316;16.174;2022-07-04T04:14:24;17.20;99.90
38860;DHT22;24609;48.316;16.174;2022-07-04T04:16:50;17.30;99.90
38860;DHT22;24609;48.316;16.174;2022-07-04T04:19:16;17.30;99.90
38860;DHT22;24609;48.316;16.174;2022-07-04T04:21:42;17.30;99.90
38860;DHT22;24609;48.316;16.174;2022-07-04T04:24:07;17.60;99.90
38860;DHT22;24609;48.316;16.174;2022-07-04T04:26:33;18.00;99.90
38860;DHT22;24609;48.316;16.174;2022-07-04T04:28:59;18.40;99.90
38860;DHT22;24609;48.316;16.174;2022-07-04T04:31:25;18.80;99.90
38860;DHT22;24609;48.316;16.174;2022-07-04T04:33:51;19.20;99.90
38860;DHT22;24609;48.316;16.174;2022-07-04T04:36:17;19.50;99.90
38860;DHT22;24609;48.316;16.174;2022-07-04T04:38:43;19.50;99.90
38860;DHT22;24609;48.316;16.174;2022-07-04T04:41:09;19.40;99.90
38860;DHT22;24609;48.316;16.174;2022-07-04T04:43:35;19.80;99.90
38860;DHT22;24609;48.316;16.174;2022-07-04T04:46:00;20.80;99.90
38860;DHT22;24609;48.316;16.174;2022-07-04T04:48:26;21.60;99.90
38860;DHT22;24609;48.316;16.174;2022-07-04T04:50:52;22.40;99.90
38860;DHT22;24609;48.316;16.174;2022-07-04T04:53:17;22.20;95.60
38860;DHT22;24609;48.316;16.174;2022-07-04T04:55:43;21.60;99.90
38860;DHT22;24609;48.316;16.174;2022-07-04T04:58:09;21.60;99.90
38860;DHT22;24609;48.316;16.174;2022-07-04T05:00:35;21.70;99.90
38860;DHT22;24609;48.316;16.174;2022-07-04T05:03:00;22.00;99.90
38860;DHT22;24609;48.316;16.174;2022-07-04T05:05:26;22.00;99.90
38860;DHT22;24609;48.316;16.174;2022-07-04T05:07:51;22.70;86.30
38860;DHT22;24609;48.316;16.174;2022-07-04T05:10:18;22.40;82.40
38860;DHT22;24609;48.316;16.174;2022-07-04T05:12:43;22.20;99.90
38860;DHT22;24609;48.316;16.174;2022-07-04T05:15:10;22.00;99.90
38860;DHT22;24609;48.316;16.174;2022-07-04T05:17:36;21.70;99.90
38860;DHT22;24609;48.316;16.174;2022-07-04T05:20:02;21.70;99.90
38860;DHT22;24609;48.316;16.174;2022-07-04T05:22:28;21.90;99.90
38860;DHT22;24609;48.316;16.174;2022-07-04T05:24:54;22.10;55.20
38860;DHT22;24609;48.316;16.174;2022-07-04T05:27:20;22.20;72.90
38860;DHT22;24609;48.316;16.174;2022-07-04T05:29:45;22.70;57.40
38860;DHT22;24609;48.316;16.174;2022-07-04T05:32:11;22.60;24.10
38860;DHT22;24609;48.316;16.174;2022-07-04T05:34:37;22.70;55.10
38860;DHT22;24609;48.316;16.174;2022-07-04T05:37:03;22.40;61.20
38860;DHT22;24609;48.316;16.174;2022-07-04T05:39:29;22.50;88.40
38860;DHT22;24609;48.316;16.174;2022-07-04T05:41:55;22.30;35.50
38860;DHT22;24609;48.316;16.174;2022-07-04T05:44:21;22.20;99.90
38860;DHT22;24609;48.316;16.174;2022-07-04T05:46:46;22.10;99.90
38860;DHT22;24609;48.316;16.174;2022-07-04T05:49:12;22.10;99.90
38860;DHT22;24609;48.316;16.174;2022-07-04T05:51:38;22.20;97.10
38860;DHT22;24609;48.316;16.174;2022-07-04T05:54:04;22.00;99.90
38860;DHT22;24609;48.316;16.174;2022-07-04T05:56:29;22.00;98.70
38860;DHT22;24609;48.316;16.174;2022-07-04T05:58:56;22.10;99.60
38860;DHT22;24609;48.316;16.174;2022-07-04T06:01:21;22.60;76.00
38860;DHT22;24609;48.316;16.174;2022-07-04T06:03:47;23.70;13.00
38860;DHT22;24609;48.316;16.174;2022-07-04T06:06:13;24.20;1.00
38860;DHT22;24609;48.316;16.174;2022-07-04T06:08:39;23.80;1.00
38860;DHT22;24609;48.316;16.174;2022-07-04T06:11:05;24.10;1.00
38860;DHT22;24609;48.316;16.174;2022-07-04T06:13:30;24.10;1.00
38860;DHT22;24609;48.316;16.174;2022-07-04T06:15:56;23.40;17.70
38860;DHT22;24609;48.316;16.174;2022-07-04T06:18:22;22.80;59.10
38860;DHT22;24609;48.316;16.174;2022-07-04T06:20:48;22.50;99.90
38860;DHT22;24609;48.316;16.174;2022-07-04T06:23:13;22.40;99.90
38860;DHT22;24609;48.316;16.174;2022-07-04T06:25:39;22.20;99.90
38860;DHT22;24609;48.316;16.174;2022-07-04T06:28:05;22.20;99.90
38860;DHT22;24609;48.316;16.174;2022-07-04T06:30:30;22.20;99.90
38860;DHT22;24609;48.316;16.174;2022-07-04T06:32:57;22.10;99.90
38860;DHT22;24609;48.316;16.174;2022-07-04T06:35:26;22.40;99.90
38860;DHT22;24609;48.316;16.174;2022-07-04T06:38:16;22.60;99.90
38860;DHT22;24609;48.316;16.174;2022-07-04T06:40:43;23.00;95.30
38860;DHT22;24609;48.316;16.174;2022-07-04T06:43:09;23.20;66.80
38860;DHT22;24609;48.316;16.174;2022-07-04T06:45:35;23.40;30.30
38860;DHT22;24609;48.316;16.174;2022-07-04T06:48:05;23.70;19.80
38860;DHT22;24609;48.316;16.174;2022-07-04T06:50:35;24.20;1.00
38860;DHT22;24609;48.316;16.174;2022-07-04T06:53:02;25.00;1.00
38860;DHT22;24609;48.316;16.174;2022-07-04T06:55:29;25.30;1.00
38860;DHT22;24609;48.316;16.174;2022-07-04T06:57:55;25.00;1.00
38860;DHT22;24609;48.316;16.174;2022-07-04T07:00:20;24.60;1.00
38860;DHT22;24609;48.316;16.174;2022-07-04T07:02:46;24.30;1.00
38860;DHT22;24609;48.316;16.174;2022-07-04T07:05:12;24.30;1.00
38860;DHT22;24609;48.316;16.174;2022-07-04T07:07:38;24.30;1.00
38860;DHT22;24609;48.316;16.174;2022-07-04T07:10:04;24.40;1.00
38860;DHT22;24609;48.316;16.174;2022-07-04T07:12:32;24.40;1.00
38860;DHT22;24609;48.316;16.174;2022-07-04T07:14:58;24.40;1.00
38860;DHT22;24609;48.316;16.174;2022-07-04T07:17:24;24.70;1.00
38860;DHT22;24609;48.316;16.174;2022-07-04T07:19:49;24.80;1.00
38860;DHT22;24609;48.316;16.174;2022-07-04T07:22:15;25.00;1.00
38860;DHT22;24609;48.316;16.174;2022-07-04T07:24:42;25.10;1.00
38860;DHT22;24609;48.316;16.174;2022-07-04T07:27:08;24.90;1.00
38860;DHT22;24609;48.316;16.174;2022-07-04T07:29:35;24.80;1.00
38860;DHT22;24609;48.316;16.174;2022-07-04T07:32:00;24.80;1.00
38860;DHT22;24609;48.316;16.174;2022-07-04T07:34:26;25.00;1.00
38860;DHT22;24609;48.316;16.174;2022-07-04T07:36:53;25.00;1.00
38860;DHT22;24609;48.316;16.174;2022-07-04T07:39:19;25.10;1.00
38860;DHT22;24609;48.316;16.174;2022-07-04T07:41:45;25.00;1.00
38860;DHT22;24609;48.316;16.174;2022-07-04T07:44:11;25.00;1.00
38860;DHT22;24609;48.316;16.174;2022-07-04T07:46:36;24.80;1.00
38860;DHT22;24609;48.316;16.174;2022-07-04T07:49:02;24.80;1.00
38860;DHT22;24609;48.316;16.174;2022-07-04T07:51:28;25.10;1.00
38860;DHT22;24609;48.316;16.174;2022-07-04T07:53:54;25.20;99.90
38860;DHT22;24609;48.316;16.174;2022-07-04T07:56:20;26.10;99.90
38860;DHT22;24609;48.316;16.174;2022-07-04T07:58:46;26.90;33.40
38860;DHT22;24609;48.316;16.174;2022-07-04T08:01:11;27.80;1.00
38860;DHT22;24609;48.316;16.174;2022-07-04T08:03:37;28.70;99.90
38860;DHT22;24609;48.316;16.174;2022-07-04T08:06:22;28.70;99.90
38860;DHT22;24609;48.316;16.174;2022-07-04T08:08:47;29.10;16.90
38860;DHT22;24609;48.316;16.174;2022-07-04T08:11:13;28.10;99.90
38860;DHT22;24609;48.316;16.174;2022-07-04T08:13:39;27.60;99.90
38860;DHT22;24609;48.316;16.174;2022-07-04T08:16:06;27.80;1.00
38860;DHT22;24609;48.316;16.174;2022-07-04T08:18:32;27.60;99.90
38860;DHT22;24609;48.316;16.174;2022-07-04T08:20:58;27.00;1.00
38860;DHT22;24609;48.316;16.174;2022-07-04T08:23:26;27.30;1.00
38860;DHT22;24609;48.316;16.174;2022-07-04T08:25:52;28.10;99.90
38860;DHT22;24609;48.316;16.174;2022-07-04T08:28:17;29.10;99.90
38860;DHT22;24609;48.316;16.174;2022-07-04T08:30:43;29.80;77.50
38860;DHT22;24609;48.316;16.174;2022-07-04T08:33:08;30.20;1.00
38860;DHT22;24609;48.316;16.174;2022-07-04T08:35:34;30.90;1.00
38860;DHT22;24609;48.316;16.174;2022-07-04T08:38:00;30.00;1.00
38860;DHT22;24609;48.316;16.174;2022-07-04T08:40:28;29.80;28.50
38860;DHT22;24609;48.316;16.174;2022-07-04T08:42:55;29.00;75.00
38860;DHT22;24609;48.316;16.174;2022-07-04T08:45:30;28.10;99.90
38860;DHT22;24609;48.316;16.174;2022-07-04T08:48:03;27.50;99.90
38860;DHT22;24609;48.316;16.174;2022-07-04T08:50:31;27.10;99.90
38860;DHT22;24609;48.316;16.174;2022-07-04T08:53:07;26.50;99.90
38860;DHT22;24609;48.316;16.174;2022-07-04T08:55:35;26.40;86.20
38860;DHT22;24609;48.316;16.174;2022-07-04T08:58:19;26.10;99.90
38860;DHT22;24609;48.316;16.174;2022-07-04T09:00:56;25.90;1.00
38860;DHT22;24609;48.316;16.174;2022-07-04T09:03:22;25.70;14.80
38860;DHT22;24609;48.316;16.174;2022-07-04T09:05:48;25.50;1.00
38860;DHT22;24609;48.316;16.174;2022-07-04T09:08:14;25.50;26.30
38860;DHT22;24609;48.316;16.174;2022-07-04T09:10:40;25.40;55.70
38860;DHT22;24609;48.316;16.174;2022-07-04T09:13:07;25.70;99.90
38860;DHT22;24609;48.316;16.174;2022-07-04T09:15:34;25.70;99.90
38860;DHT22;24609;48.316;16.174;2022-07-04T09:18:01;26.00;1.00
38860;DHT22;24609;48.316;16.174;2022-07-04T09:20:29;26.00;1.00
38860;DHT22;24609;48.316;16.174;2022-07-04T09:22:55;25.70;1.00
38860;DHT22;24609;48.316;16.174;2022-07-04T09:25:23;25.90;1.00
38860;DHT22;24609;48.316;16.174;2022-07-04T09:27:59;25.80;21.90
38860;DHT22;24609;48.316;16.174;2022-07-04T09:30:27;25.50;1.00
38860;DHT22;24609;48.316;16.174;2022-07-04T09:32:55;25.40;1.00
38860;DHT22;24609;48.316;16.174;2022-07-04T09:35:30;25.30;99.90
38860;DHT22;24609;48.316;16.174;2022-07-04T09:38:03;25.40;99.90
38860;DHT22;24609;48.316;16.174;2022-07-04T09:40:33;25.50;99.90
38860;DHT22;24609;48.316;16.174;2022-07-04T09:43:00;25.30;99.90
38860;DHT22;24609;48.316;16.174;2022-07-04T09:45:26;25.20;99.90
38860;DHT22;24609;48.316;16.174;2022-07-04T09:47:56;25.20;99.90
38860;DHT22;24609;48.316;16.174;2022-07-04T09:50:24;25.20;99.90
38860;DHT22;24609;48.316;16.174;2022-07-04T09:52:55;25.30;99.90
38860;DHT22;24609;48.316;16.174;2022-07-04T09:55:29;25.20;99.90
38860;DHT22;24609;48.316;16.174;2022-07-04T09:58:00;25.20;1.00
38860;DHT22;24609;48.316;16.174;2022-07-04T10:00:29;25.40;1.00
38860;DHT22;24609;48.316;16.174;2022-07-04T10:02:56;25.50;1.00
38860;DHT22;24609;48.316;16.174;2022-07-04T10:05:27;25.60;99.90
38860;DHT22;24609;48.316;16.174;2022-07-04T10:07:55;25.80;99.90
38860;DHT22;24609;48.316;16.174;2022-07-04T10:12:57;26.60;99.90
38860;DHT22;24609;48.316;16.174;2022-07-04T10:15:23;27.40;99.90
38860;DHT22;24609;48.316;16.174;2022-07-04T10:17:49;28.10;99.90
38860;DHT22;24609;48.316;16.174;2022-07-04T10:20:15;28.90;83.90
38860;DHT22;24609;48.316;16.174;2022-07-04T10:22:41;28.80;99.90
38860;DHT22;24609;48.316;16.174;2022-07-04T10:25:08;29.10;99.90
38860;DHT22;24609;48.316;16.174;2022-07-04T10:27:35;31.90;1.00
38860;DHT22;24609;48.316;16.174;2022-07-04T10:30:03;32.80;99.90
38860;DHT22;24609;48.316;16.174;2022-07-04T10:32:30;32.20;99.90
38860;DHT22;24609;48.316;16.174;2022-07-04T10:34:56;32.80;1.00
38860;DHT22;24609;48.316;16.174;2022-07-04T10:37:22;34.40;1.00
38860;DHT22;24609;48.316;16.174;2022-07-04T10:39:48;33.10;99.90
38860;DHT22;24609;48.316;16.174;2022-07-04T10:42:24;34.90;1.00
38860;DHT22;24609;48.316;16.174;2022-07-04T10:44:50;34.40;1.00
38860;DHT22;24609;48.316;16.174;2022-07-04T10:47:25;34.90;99.90
38860;DHT22;24609;48.316;16.174;2022-07-04T10:49:55;35.80;99.90
38860;DHT22;24609;48.316;16.174;2022-07-04T10:52:21;36.60;99.90
38860;DHT22;24609;48.316;16.174;2022-07-04T10:54:47;35.90;99.90
38860;DHT22;24609;48.316;16.174;2022-07-04T10:57:22;34.60;99.90
38860;DHT22;24609;48.316;16.174;2022-07-04T11:17:59;31.50;36.80
38860;DHT22;24609;48.316;16.174;2022-07-04T11:20:27;31.80;99.90
38860;DHT22;24609;48.316;16.174;2022-07-04T11:23:20;31.80;99.90
38860;DHT22;24609;48.316;16.174;2022-07-04T11:25:47;32.60;1.00
38860;DHT22;24609;48.316;16.174;2022-07-04T11:28:22;33.20;1.00
38860;DHT22;24609;48.316;16.174;2022-07-04T11:30:53;33.40;99.90
38860;DHT22;24609;48.316;16.174;2022-07-04T11:33:21;33.90;99.90
38860;DHT22;24609;48.316;16.174;2022-07-04T11:36:10;35.70;99.90
38860;DHT22;24609;48.316;16.174;2022-07-04T11:38:55;36.30;99.90
38860;DHT22;24609;48.316;16.174;2022-07-04T11:44:33;34.40;62.30
38860;DHT22;24609;48.316;16.174;2022-07-04T11:49:53;34.40;82.60
38860;DHT22;24609;48.316;16.174;2022-07-04T11:52:21;34.00;98.30
38860;DHT22;24609;48.316;16.174;2022-07-04T11:54:48;33.40;99.90
38860;DHT22;24609;48.316;16.174;2022-07-04T11:57:19;34.10;99.90
38860;DHT22;24609;48.316;16.174;2022-07-04T11:59:53;34.10;99.90
38860;DHT22;24609;48.316;16.174;2022-07-04T12:02:19;36.40;28.40
38860;DHT22;24609;48.316;16.174;2022-07-04T12:04:48;40.10;1.00
38860;DHT22;24609;48.316;16.174;2022-07-04T12:07:15;42.10;93.10
38860;DHT22;24609;48.316;16.174;2022-07-04T12:09:42;42.50;20.60
38860;DHT22;24609;48.316;16.174;2022-07-04T12:12:10;43.50;99.90
38860;DHT22;24609;48.316;16.174;2022-07-04T12:14:36;43.90;99.90
38860;DHT22;24609;48.316;16.174;2022-07-04T12:19:37;43.30;99.90
38860;DHT22;24609;48.316;16.174;2022-07-04T12:22:03;43.60;99.90
38860;DHT22;24609;48.316;16.174;2022-07-04T12:24:38;44.50;99.90
38860;DHT22;24609;48.316;16.174;2022-07-04T12:27:04;44.40;99.90
38860;DHT22;24609;48.316;16.174;2022-07-04T12:29:30;44.20;1.00
38860;DHT22;24609;48.316;16.174;2022-07-04T12:31:55;45.60;1.00
38860;DHT22;24609;48.316;16.174;2022-07-04T12:34:21;46.50;99.90
38860;DHT22;24609;48.316;16.174;2022-07-04T12:36:57;46.70;1.00
38860;DHT22;24609;48.316;16.174;2022-07-04T12:39:31;43.70;99.90
38860;DHT22;24609;48.316;16.174;2022-07-04T12:42:23;43.10;99.90
38860;DHT22;24609;48.316;16.174;2022-07-04T12:44:49;43.70;1.00
38860;DHT22;24609;48.316;16.174;2022-07-04T12:47:15;43.90;99.90
38860;DHT22;24609;48.316;16.174;2022-07-04T12:49:46;43.90;99.90
38860;DHT22;24609;48.316;16.174;2022-07-04T12:52:14;42.00;1.00
38860;DHT22;24609;48.316;16.174;2022-07-04T12:54:41;44.30;99.90
38860;DHT22;24609;48.316;16.174;2022-07-04T12:57:13;43.40;99.90
38860;DHT22;24609;48.316;16.174;2022-07-04T12:59:40;44.40;99.90
38860;DHT22;24609;48.316;16.174;2022-07-04T13:02:08;46.60;99.90
38860;DHT22;24609;48.316;16.174;2022-07-04T13:04:34;46.50;1.00
38860;DHT22;24609;48.316;16.174;2022-07-04T13:07:12;44.70;99.90
38860;DHT22;24609;48.316;16.174;2022-07-04T13:09:38;42.50;99.90
38860;DHT22;24609;48.316;16.174;2022-07-04T13:12:04;40.90;99.90
38860;DHT22;24609;48.316;16.174;2022-07-04T13:14:48;41.70;99.90
38860;DHT22;24609;48.316;16.174;2022-07-04T13:17:14;41.20;99.90
38860;DHT22;24609;48.316;16.174;2022-07-04T13:19:40;40.80;99.90
38860;DHT22;24609;48.316;16.174;2022-07-04T13:22:06;40.90;99.90
38860;DHT22;24609;48.316;16.174;2022-07-04T13:24:31;41.70;99.90
38860;DHT22;24609;48.316;16.174;2022-07-04T13:26:57;41.90;99.90
38860;DHT22;24609;48.316;16.174;2022-07-04T13:29:22;40.80;99.90
38860;DHT22;24609;48.316;16.174;2022-07-04T13:31:49;40.30;99.90
38860;DHT22;24609;48.316;16.174;2022-07-04T13:34:15;39.00;99.90
38860;DHT22;24609;48.316;16.174;2022-07-04T13:36:41;37.90;99.90
38860;DHT22;24609;48.316;16.174;2022-07-04T13:39:06;38.00;99.90
38860;DHT22;24609;48.316;16.174;2022-07-04T13:41:33;37.30;99.90
38860;DHT22;24609;48.316;16.174;2022-07-04T13:44:05;38.70;99.90
38860;DHT22;24609;48.316;16.174;2022-07-04T13:46:31;38.80;99.90
38860;DHT22;24609;48.316;16.174;2022-07-04T13:49:02;38.70;97.60
38860;DHT22;24609;48.316;16.174;2022-07-04T13:51:27;37.50;91.40
38860;DHT22;24609;48.316;16.174;2022-07-04T13:53:53;36.50;75.00
38860;DHT22;24609;48.316;16.174;2022-07-04T13:56:19;36.80;35.30
38860;DHT22;24609;48.316;16.174;2022-07-04T13:58:47;37.30;93.70
38860;DHT22;24609;48.316;16.174;2022-07-04T14:01:13;36.50;96.10
38860;DHT22;24609;48.316;16.174;2022-07-04T14:03:41;37.80;99.90
38860;DHT22;24609;48.316;16.174;2022-07-04T14:06:07;39.50;85.60
38860;DHT22;24609;48.316;16.174;2022-07-04T14:08:33;40.60;99.90
38860;DHT22;24609;48.316;16.174;2022-07-04T14:10:59;41.20;99.90
38860;DHT22;24609;48.316;16.174;2022-07-04T14:13:25;42.10;99.90
38860;DHT22;24609;48.316;16.174;2022-07-04T14:15:51;40.50;99.90
38860;DHT22;24609;48.316;16.174;2022-07-04T14:18:17;40.90;99.90
38860;DHT22;24609;48.316;16.174;2022-07-04T14:20:43;41.60;99.90
38860;DHT22;24609;48.316;16.174;2022-07-04T14:23:09;38.90;99.90
38860;DHT22;24609;48.316;16.174;2022-07-04T14:25:34;38.00;87.20
38860;DHT22;24609;48.316;16.174;2022-07-04T14:28:00;37.60;92.40
38860;DHT22;24609;48.316;16.174;2022-07-04T14:30:27;38.20;81.90
38860;DHT22;24609;48.316;16.174;2022-07-04T14:32:52;37.90;99.30
38860;DHT22;24609;48.316;16.174;2022-07-04T14:35:18;36.80;96.00
38860;DHT22;24609;48.316;16.174;2022-07-04T14:37:44;36.30;43.80
38860;DHT22;24609;48.316;16.174;2022-07-04T14:40:10;35.60;73.10
38860;DHT22;24609;48.316;16.174;2022-07-04T14:42:37;34.50;94.20
38860;DHT22;24609;48.316;16.174;2022-07-04T14:45:02;33.90;71.60
38860;DHT22;24609;48.316;16.174;2022-07-04T14:47:28;34.00;8.00
38860;DHT22;24609;48.316;16.174;2022-07-04T14:49:57;34.30;1.00
38860;DHT22;24609;48.316;16.174;2022-07-04T14:52:23;34.30;1.00
38860;DHT22;24609;48.316;16.174;2022-07-04T14:54:48;33.90;1.00
38860;DHT22;24609;48.316;16.174;2022-07-04T14:57:14;33.70;1.00
38860;DHT22;24609;48.316;16.174;2022-07-04T14:59:39;33.20;1.00
38860;DHT22;24609;48.316;16.174;2022-07-04T15:02:06;32.50;85.50
38860;DHT22;24609;48.316;16.174;2022-07-04T15:04:32;32.30;99.90
38860;DHT22;24609;48.316;16.174;2022-07-04T15:06:58;32.20;99.90
38860;DHT22;24609;48.316;16.174;2022-07-04T15:09:24;31.90;1.00
38860;DHT22;24609;48.316;16.174;2022-07-04T15:11:49;31.40;1.00
38860;DHT22;24609;48.316;16.174;2022-07-04T15:14:17;31.10;99.90
38860;DHT22;24609;48.316;16.174;2022-07-04T15:16:43;30.80;99.90
38860;DHT22;24609;48.316;16.174;2022-07-04T15:19:08;30.60;99.90
38860;DHT22;24609;48.316;16.174;2022-07-04T15:21:34;30.50;1.00
38860;DHT22;24609;48.316;16.174;2022-07-04T15:24:19;30.30;58.80
38860;DHT22;24609;48.316;16.174;2022-07-04T15:26:46;29.80;1.00
38860;DHT22;24609;48.316;16.174;2022-07-04T15:29:15;29.40;99.90
38860;DHT22;24609;48.316;16.174;2022-07-04T15:31:42;29.10;99.90
38860;DHT22;24609;48.316;16.174;2022-07-04T15:34:09;29.00;99.90
38860;DHT22;24609;48.316;16.174;2022-07-04T15:36:34;28.70;99.90
38860;DHT22;24609;48.316;16.174;2022-07-04T15:39:09;28.60;99.90
38860;DHT22;24609;48.316;16.174;2022-07-04T15:41:36;28.50;1.00
38860;DHT22;24609;48.316;16.174;2022-07-04T15:44:02;28.30;99.90
38860;DHT22;24609;48.316;16.174;2022-07-04T15:46:29;28.10;54.60
38860;DHT22;24609;48.316;16.174;2022-07-04T15:48:54;27.90;65.80
38860;DHT22;24609;48.316;16.174;2022-07-04T15:51:20;27.70;99.90